sensor_id;sensor_type;location;lat;lon;timestamp;temperature;humidity
34776;DHT22;20989;52.566;13.346;2023-02-18T00:00:14;21.00;44.50
34776;DHT22;20989;52.566;13.346;2023-02-18T00:03:15;21.00;44.60
34776;DHT22;20989;52.566;13.346;2023-02-18T00:06:19;21.00;44.80
34776;DHT22;20989;52.566;13.346;2023-02-18T00:09:20;21.00;44.80
34776;DHT22;20989;52.566;13.346;2023-02-18T00:12:21;21.00;44.50
34776;DHT22;20989;52.566;13.346;2023-02-18T00:15:21;21.00;44.70
34776;DHT22;20989;52.566;13.346;2023-02-18T00:18:22;21.10;44.70
34776;DHT22;20989;52.566;13.346;2023-02-18T00:21:23;21.00;44.70
34776;DHT22;20989;52.566;13.346;2023-02-18T00:24:23;21.00;44.70
34776;DHT22;20989;52.566;13.346;2023-02-18T00:27:24;21.00;44.70
34776;DHT22;20989;52.566;13.346;2023-02-18T00:30:24;21.00;44.80
34776;DHT22;20989;52.566;13.346;2023-02-18T00:33:25;21.00;44.80
34776;DHT22;20989;52.566;13.346;2023-02-18T00:36:27;21.00;44.90
34776;DHT22;20989;52.566;13.346;2023-02-18T00:39:27;21.00;44.80
34776;DHT22;20989;52.566;13.346;2023-02-18T00:42:28;21.00;44.90
34776;DHT22;20989;52.566;13.346;2023-02-18T00:45:29;21.00;44.90
34776;DHT22;20989;52.566;13.346;2023-02-18T00:48:29;21.00;45.10
34776;DHT22;20989;52.566;13.346;2023-02-18T00:51:30;21.00;45.00
34776;DHT22;20989;52.566;13.346;2023-02-18T00:54:31;21.00;44.90
34776;DHT22;20989;52.566;13.346;2023-02-18T00:57:31;21.00;44.80
34776;DHT22;20989;52.566;13.346;2023-02-18T01:00:33;21.00;44.70
34776;DHT22;20989;52.566;13.346;2023-02-18T01:03:35;21.00;44.90
34776;DHT22;20989;52.566;13.346;2023-02-18T01:06:36;21.00;44.70
34776;DHT22;20989;52.566;13.346;2023-02-18T01:09:36;21.00;44.70
34776;DHT22;20989;52.566;13.346;2023-02-18T01:12:37;21.00;45.00
34776;DHT22;20989;52.566;13.346;2023-02-18T01:15:38;20.90;44.60
34776;DHT22;20989;52.566;13.346;2023-02-18T01:18:39;20.90;44.70
34776;DHT22;20989;52.566;13.346;2023-02-18T01:21:40;20.90;44.60
34776;DHT22;20989;52.566;13.346;2023-02-18T01:24:41;21.00;44.80
34776;DHT22;20989;52.566;13.346;2023-02-18T01:27:41;20.90;44.80
34776;DHT22;20989;52.566;13.346;2023-02-18T01:30:42;21.00;44.80
34776;DHT22;20989;52.566;13.346;2023-02-18T01:33:43;20.90;44.60
34776;DHT22;20989;52.566;13.346;2023-02-18T01:36:43;21.00;44.80
34776;DHT22;20989;52.566;13.346;2023-02-18T01:39:44;20.90;44.70
34776;DHT22;20989;52.566;13.346;2023-02-18T01:42:47;20.90;44.80
34776;DHT22;20989;52.566;13.346;2023-02-18T01:45:58;21.00;44.90
34776;DHT22;20989;52.566;13.346;2023-02-18T01:49:00;21.00;44.80
34776;DHT22;20989;52.566;13.346;2023-02-18T01:52:07;21.00;44.90
34776;DHT22;20989;52.566;13.346;2023-02-18T01:55:08;21.00;45.00
34776;DHT22;20989;52.566;13.346;2023-02-18T01:58:10;20.90;44.90
34776;DHT22;20989;52.566;13.346;2023-02-18T02:01:11;20.90;44.60
34776;DHT22;20989;52.566;13.346;2023-02-18T02:04:12;20.90;45.00
34776;DHT22;20989;52.566;13.346;2023-02-18T02:07:14;20.90;44.80
34776;DHT22;20989;52.566;13.346;2023-02-18T02:10:15;20.90;44.80
34776;DHT22;20989;52.566;13.346;2023-02-18T02:17:15;20.90;44.90
34776;DHT22;20989;52.566;13.346;2023-02-18T02:27:22;20.90;45.00
34776;DHT22;20989;52.566;13.346;2023-02-18T02:31:15;20.90;44.70
34776;DHT22;20989;52.566;13.346;2023-02-18T02:38:05;20.90;44.70
34776;DHT22;20989;52.566;13.346;2023-02-18T02:41:42;20.90;44.80
34776;DHT22;20989;52.566;13.346;2023-02-18T02:44:56;20.90;44.70
34776;DHT22;20989;52.566;13.346;2023-02-18T02:51:45;20.90;45.00
34776;DHT22;20989;52.566;13.346;2023-02-18T02:54:47;20.90;45.00
34776;DHT22;20989;52.566;13.346;2023-02-18T02:57:50;20.90;44.90
34776;DHT22;20989;52.566;13.346;2023-02-18T03:11:00;20.90;44.90
34776;DHT22;20989;52.566;13.346;2023-02-18T03:14:09;20.90;44.90
34776;DHT22;20989;52.566;13.346;2023-02-18T03:17:24;21.00;44.80
34776;DHT22;20989;52.566;13.346;2023-02-18T03:20:30;21.00;44.70
34776;DHT22;20989;52.566;13.346;2023-02-18T03:27:21;21.00;44.80
34776;DHT22;20989;52.566;13.346;2023-02-18T03:30:26;21.00;44.60
34776;DHT22;20989;52.566;13.346;2023-02-18T03:33:36;21.00;44.60
34776;DHT22;20989;52.566;13.346;2023-02-18T03:36:37;21.00;44.70
34776;DHT22;20989;52.566;13.346;2023-02-18T03:39:41;21.00;44.80
34776;DHT22;20989;52.566;13.346;2023-02-18T03:42:43;21.00;44.80
34776;DHT22;20989;52.566;13.346;2023-02-18T03:45:44;21.00;44.80
34776;DHT22;20989;52.566;13.346;2023-02-18T03:48:44;21.00;44.60
34776;DHT22;20989;52.566;13.346;2023-02-18T03:51:46;21.00;44.60
34776;DHT22;20989;52.566;13.346;2023-02-18T03:54:46;20.90;44.60
34776;DHT22;20989;52.566;13.346;2023-02-18T03:57:47;20.90;44.70
34776;DHT22;20989;52.566;13.346;2023-02-18T04:00:47;21.00;44.80
34776;DHT22;20989;52.566;13.346;2023-02-18T04:03:48;21.00;44.70
34776;DHT22;20989;52.566;13.346;2023-02-18T04:06:49;21.00;44.80
34776;DHT22;20989;52.566;13.346;2023-02-18T04:09:49;21.00;44.70
34776;DHT22;20989;52.566;13.346;2023-02-18T04:12:50;21.00;44.80
34776;DHT22;20989;52.566;13.346;2023-02-18T04:15:51;21.00;44.70
34776;DHT22;20989;52.566;13.346;2023-02-18T04:18:51;21.00;44.80
34776;DHT22;20989;52.566;13.346;2023-02-18T04:21:52;21.00;44.80
34776;DHT22;20989;52.566;13.346;2023-02-18T04:24:53;20.90;44.70
34776;DHT22;20989;52.566;13.346;2023-02-18T04:27:53;20.90;44.70
34776;DHT22;20989;52.566;13.346;2023-02-18T04:30:54;21.00;44.80
34776;DHT22;20989;52.566;13.346;2023-02-18T04:33:54;21.00;44.90
34776;DHT22;20989;52.566;13.346;2023-02-18T04:36:55;21.00;44.80
34776;DHT22;20989;52.566;13.346;2023-02-18T04:39:56;20.90;44.80
34776;DHT22;20989;52.566;13.346;2023-02-18T04:42:58;21.00;44.90
34776;DHT22;20989;52.566;13.346;2023-02-18T04:45:58;20.90;44.80
34776;DHT22;20989;52.566;13.346;2023-02-18T04:48:59;21.00;44.80
34776;DHT22;20989;52.566;13.346;2023-02-18T04:52:00;20.90;44.80
34776;DHT22;20989;52.566;13.346;2023-02-18T04:55:01;20.90;44.70
34776;DHT22;20989;52.566;13.346;2023-02-18T04:58:02;20.90;44.80
34776;DHT22;20989;52.566;13.346;2023-02-18T05:01:03;21.00;44.70
34776;DHT22;20989;52.566;13.346;2023-02-18T05:04:04;20.90;44.90
34776;DHT22;20989;52.566;13.346;2023-02-18T05:07:04;21.00;44.80
34776;DHT22;20989;52.566;13.346;2023-02-18T05:10:05;20.90;45.10
34776;DHT22;20989;52.566;13.346;2023-02-18T05:13:06;20.90;45.10
34776;DHT22;20989;52.566;13.346;2023-02-18T05:16:07;20.90;44.90
34776;DHT22;20989;52.566;13.346;2023-02-18T05:19:08;21.00;44.90
34776;DHT22;20989;52.566;13.346;2023-02-18T05:22:10;21.00;44.80
34776;DHT22;20989;52.566;13.346;2023-02-18T05:25:10;21.00;44.80
34776;DHT22;20989;52.566;13.346;2023-02-18T05:28:11;21.00;45.30
34776;DHT22;20989;52.566;13.346;2023-02-18T05:31:11;21.00;44.70
34776;DHT22;20989;52.566;13.346;2023-02-18T05:34:12;21.10;44.60
34776;DHT22;20989;52.566;13.346;2023-02-18T05:37:13;21.10;44.30
34776;DHT22;20989;52.566;13.346;2023-02-18T05:40:13;21.10;44.10
34776;DHT22;20989;52.566;13.346;2023-02-18T05:43:14;21.10;44.10
34776;DHT22;20989;52.566;13.346;2023-02-18T05:46:15;21.10;44.00
34776;DHT22;20989;52.566;13.346;2023-02-18T05:49:15;21.20;44.00
34776;DHT22;20989;52.566;13.346;2023-02-18T05:52:16;21.20;43.90
34776;DHT22;20989;52.566;13.346;2023-02-18T05:55:17;21.20;43.90
34776;DHT22;20989;52.566;13.346;2023-02-18T05:58:18;21.20;44.00
34776;DHT22;20989;52.566;13.346;2023-02-18T06:01:19;21.20;43.90
34776;DHT22;20989;52.566;13.346;2023-02-18T06:04:19;21.20;43.90
34776;DHT22;20989;52.566;13.346;2023-02-18T06:07:20;21.20;43.90
34776;DHT22;20989;52.566;13.346;2023-02-18T06:10:20;21.20;43.90
34776;DHT22;20989;52.566;13.346;2023-02-18T06:13:21;21.20;43.90
34776;DHT22;20989;52.566;13.346;2023-02-18T06:16:22;21.20;43.90
34776;DHT22;20989;52.566;13.346;2023-02-18T06:19:22;21.20;43.90
34776;DHT22;20989;52.566;13.346;2023-02-18T06:22:23;21.20;43.90
34776;DHT22;20989;52.566;13.346;2023-02-18T06:25:24;21.20;43.90
34776;DHT22;20989;52.566;13.346;2023-02-18T06:28:24;21.20;44.00
34776;DHT22;20989;52.566;13.346;2023-02-18T06:31:25;21.20;44.10
34776;DHT22;20989;52.566;13.346;2023-02-18T06:34:26;21.20;44.10
34776;DHT22;20989;52.566;13.346;2023-02-18T06:37:27;21.20;44.10
34776;DHT22;20989;52.566;13.346;2023-02-18T06:40:28;21.20;44.20
34776;DHT22;20989;52.566;13.346;2023-02-18T06:43:29;21.20;44.30
34776;DHT22;20989;52.566;13.346;2023-02-18T06:46:29;21.20;44.30
34776;DHT22;20989;52.566;13.346;2023-02-18T06:49:30;21.20;44.30
34776;DHT22;20989;52.566;13.346;2023-02-18T06:52:30;21.10;44.40
34776;DHT22;20989;52.566;13.346;2023-02-18T06:55:32;21.10;44.30
34776;DHT22;20989;52.566;13.346;2023-02-18T06:58:34;21.10;44.70
34776;DHT22;20989;52.566;13.346;2023-02-18T07:01:35;21.20;44.50
34776;DHT22;20989;52.566;13.346;2023-02-18T07:04:36;21.10;44.40
34776;DHT22;20989;52.566;13.346;2023-02-18T07:07:36;21.10;44.50
34776;DHT22;20989;52.566;13.346;2023-02-18T07:10:37;21.10;45.00
34776;DHT22;20989;52.566;13.346;2023-02-18T07:13:38;21.10;44.90
34776;DHT22;20989;52.566;13.346;2023-02-18T07:16:38;21.10;44.90
34776;DHT22;20989;52.566;13.346;2023-02-18T07:19:39;21.10;44.90
34776;DHT22;20989;52.566;13.346;2023-02-18T07:22:40;21.10;44.50
34776;DHT22;20989;52.566;13.346;2023-02-18T07:25:40;21.10;44.90
34776;DHT22;20989;52.566;13.346;2023-02-18T07:28:41;21.10;44.50
34776;DHT22;20989;52.566;13.346;2023-02-18T07:31:42;21.10;45.00
34776;DHT22;20989;52.566;13.346;2023-02-18T07:34:42;21.10;45.40
34776;DHT22;20989;52.566;13.346;2023-02-18T07:37:45;21.10;45.00
34776;DHT22;20989;52.566;13.346;2023-02-18T07:40:46;21.10;44.80
34776;DHT22;20989;52.566;13.346;2023-02-18T07:43:46;21.10;45.00
34776;DHT22;20989;52.566;13.346;2023-02-18T07:46:47;21.00;45.10
34776;DHT22;20989;52.566;13.346;2023-02-18T07:49:48;21.10;44.70
34776;DHT22;20989;52.566;13.346;2023-02-18T07:52:48;21.00;44.80
34776;DHT22;20989;52.566;13.346;2023-02-18T07:55:49;21.10;44.70
34776;DHT22;20989;52.566;13.346;2023-02-18T07:58:49;21.00;44.80
34776;DHT22;20989;52.566;13.346;2023-02-18T08:01:50;21.00;44.70
34776;DHT22;20989;52.566;13.346;2023-02-18T08:04:51;21.00;44.70
34776;DHT22;20989;52.566;13.346;2023-02-18T08:07:51;21.00;44.80
34776;DHT22;20989;52.566;13.346;2023-02-18T08:10:53;21.00;44.80
34776;DHT22;20989;52.566;13.346;2023-02-18T08:13:54;21.00;44.70
34776;DHT22;20989;52.566;13.346;2023-02-18T08:16:55;21.00;44.80
34776;DHT22;20989;52.566;13.346;2023-02-18T08:19:56;21.00;44.70
34776;DHT22;20989;52.566;13.346;2023-02-18T08:22:56;21.00;44.80
34776;DHT22;20989;52.566;13.346;2023-02-18T08:25:57;21.00;44.90
34776;DHT22;20989;52.566;13.346;2023-02-18T08:28:57;21.00;45.30
34776;DHT22;20989;52.566;13.346;2023-02-18T08:31:58;21.00;45.10
34776;DHT22;20989;52.566;13.346;2023-02-18T08:34:59;21.00;45.40
34776;DHT22;20989;52.566;13.346;2023-02-18T08:38:00;21.00;45.20
34776;DHT22;20989;52.566;13.346;2023-02-18T08:41:04;21.00;45.00
34776;DHT22;20989;52.566;13.346;2023-02-18T08:44:05;21.00;44.90
34776;DHT22;20989;52.566;13.346;2023-02-18T08:47:06;21.00;44.90
34776;DHT22;20989;52.566;13.346;2023-02-18T08:50:06;21.00;44.90
34776;DHT22;20989;52.566;13.346;2023-02-18T08:53:07;21.00;44.90
34776;DHT22;20989;52.566;13.346;2023-02-18T08:56:08;21.00;45.00
34776;DHT22;20989;52.566;13.346;2023-02-18T08:59:09;21.00;45.10
34776;DHT22;20989;52.566;13.346;2023-02-18T09:02:13;21.00;45.00
34776;DHT22;20989;52.566;13.346;2023-02-18T09:05:14;21.00;45.00
34776;DHT22;20989;52.566;13.346;2023-02-18T09:08:15;21.00;45.00
34776;DHT22;20989;52.566;13.346;2023-02-18T09:11:16;21.00;45.10
34776;DHT22;20989;52.566;13.346;2023-02-18T09:14:17;21.00;45.40
34776;DHT22;20989;52.566;13.346;2023-02-18T09:17:18;21.00;45.10
34776;DHT22;20989;52.566;13.346;2023-02-18T09:20:18;21.00;45.00
34776;DHT22;20989;52.566;13.346;2023-02-18T09:23:19;21.00;45.20
34776;DHT22;20989;52.566;13.346;2023-02-18T09:26:21;21.00;45.20
34776;DHT22;20989;52.566;13.346;2023-02-18T09:29:22;21.00;45.10
34776;DHT22;20989;52.566;13.346;2023-02-18T09:32:22;21.00;45.10
34776;DHT22;20989;52.566;13.346;2023-02-18T09:35:23;21.00;45.00
34776;DHT22;20989;52.566;13.346;2023-02-18T09:38:24;21.00;44.90
34776;DHT22;20989;52.566;13.346;2023-02-18T09:41:52;21.10;44.70
34776;DHT22;20989;52.566;13.346;2023-02-18T09:44:55;21.10;44.60
34776;DHT22;20989;52.566;13.346;2023-02-18T09:47:57;21.10;44.60
34776;DHT22;20989;52.566;13.346;2023-02-18T09:50:59;21.10;44.60
34776;DHT22;20989;52.566;13.346;2023-02-18T09:54:00;21.10;44.50
34776;DHT22;20989;52.566;13.346;2023-02-18T09:57:01;21.10;44.40
34776;DHT22;20989;52.566;13.346;2023-02-18T10:00:06;21.10;44.40
34776;DHT22;20989;52.566;13.346;2023-02-18T10:03:14;21.10;44.40
34776;DHT22;20989;52.566;13.346;2023-02-18T10:06:25;21.10;44.50
34776;DHT22;20989;52.566;13.346;2023-02-18T10:09:34;21.20;44.60
34776;DHT22;20989;52.566;13.346;2023-02-18T10:12:35;21.20;44.50
34776;DHT22;20989;52.566;13.346;2023-02-18T10:15:37;21.20;44.50
34776;DHT22;20989;52.566;13.346;2023-02-18T10:18:43;21.20;44.50
34776;DHT22;20989;52.566;13.346;2023-02-18T10:21:46;21.20;44.50
34776;DHT22;20989;52.566;13.346;2023-02-18T10:27:53;21.20;44.50
34776;DHT22;20989;52.566;13.346;2023-02-18T10:30:58;21.20;44.50
34776;DHT22;20989;52.566;13.346;2023-02-18T10:41:01;21.20;44.60
34776;DHT22;20989;52.566;13.346;2023-02-18T10:44:16;21.20;45.20
34776;DHT22;20989;52.566;13.346;2023-02-18T10:51:01;21.30;44.50
34776;DHT22;20989;52.566;13.346;2023-02-18T10:54:06;21.40;44.90
34776;DHT22;20989;52.566;13.346;2023-02-18T10:57:16;21.20;45.20
34776;DHT22;20989;52.566;13.346;2023-02-18T11:00:24;21.20;44.80
34776;DHT22;20989;52.566;13.346;2023-02-18T11:03:39;21.20;44.50
34776;DHT22;20989;52.566;13.346;2023-02-18T11:06:44;21.20;44.30
34776;DHT22;20989;52.566;13.346;2023-02-18T11:09:55;21.20;44.50
34776;DHT22;20989;52.566;13.346;2023-02-18T11:13:04;21.20;44.60
34776;DHT22;20989;52.566;13.346;2023-02-18T11:16:05;21.20;44.90
34776;DHT22;20989;52.566;13.346;2023-02-18T11:19:33;21.20;44.70
34776;DHT22;20989;52.566;13.346;2023-02-18T11:22:35;21.20;44.80
34776;DHT22;20989;52.566;13.346;2023-02-18T11:25:41;21.20;44.60
34776;DHT22;20989;52.566;13.346;2023-02-18T11:28:57;21.20;44.70
34776;DHT22;20989;52.566;13.346;2023-02-18T11:32:00;21.20;44.80
34776;DHT22;20989;52.566;13.346;2023-02-18T11:35:02;21.20;44.90
34776;DHT22;20989;52.566;13.346;2023-02-18T11:38:23;21.20;44.80
34776;DHT22;20989;52.566;13.346;2023-02-18T11:41:41;21.20;44.70
34776;DHT22;20989;52.566;13.346;2023-02-18T11:44:55;21.20;44.60
34776;DHT22;20989;52.566;13.346;2023-02-18T11:48:05;21.20;44.70
34776;DHT22;20989;52.566;13.346;2023-02-18T11:54:29;21.20;44.70
34776;DHT22;20989;52.566;13.346;2023-02-18T11:57:34;21.20;44.80
34776;DHT22;20989;52.566;13.346;2023-02-18T12:00:39;21.20;44.70
34776;DHT22;20989;52.566;13.346;2023-02-18T12:03:57;21.20;44.80
34776;DHT22;20989;52.566;13.346;2023-02-18T12:13:26;21.20;44.80
34776;DHT22;20989;52.566;13.346;2023-02-18T12:23:35;21.10;44.90
34776;DHT22;20989;52.566;13.346;2023-02-18T12:29:41;21.20;44.80
34776;DHT22;20989;52.566;13.346;2023-02-18T12:39:57;21.10;45.10
34776;DHT22;20989;52.566;13.346;2023-02-18T12:50:00;21.10;44.90
34776;DHT22;20989;52.566;13.346;2023-02-18T13:06:37;21.10;45.30
34776;DHT22;20989;52.566;13.346;2023-02-18T13:13:14;21.10;45.50
34776;DHT22;20989;52.566;13.346;2023-02-18T13:16:18;21.10;45.50
34776;DHT22;20989;52.566;13.346;2023-02-18T13:19:45;21.10;45.30
34776;DHT22;20989;52.566;13.346;2023-02-18T13:22:48;21.10;45.30
34776;DHT22;20989;52.566;13.346;2023-02-18T13:25:57;21.00;45.70
34776;DHT22;20989;52.566;13.346;2023-02-18T13:39:27;21.10;45.60
34776;DHT22;20989;52.566;13.346;2023-02-18T13:42:34;21.20;45.50
34776;DHT22;20989;52.566;13.346;2023-02-18T13:45:35;21.20;45.70
34776;DHT22;20989;52.566;13.346;2023-02-18T13:51:58;21.20;45.90
34776;DHT22;20989;52.566;13.346;2023-02-18T13:54:59;21.30;46.10
34776;DHT22;20989;52.566;13.346;2023-02-18T13:58:00;21.30;46.00
34776;DHT22;20989;52.566;13.346;2023-02-18T14:01:03;21.30;46.20
34776;DHT22;20989;52.566;13.346;2023-02-18T14:17:37;21.30;45.70
34776;DHT22;20989;52.566;13.346;2023-02-18T14:23:43;21.40;45.70
34776;DHT22;20989;52.566;13.346;2023-02-18T14:26:46;21.40;45.70
34776;DHT22;20989;52.566;13.346;2023-02-18T14:29:50;21.40;45.70
34776;DHT22;20989;52.566;13.346;2023-02-18T14:32:56;21.40;45.80
34776;DHT22;20989;52.566;13.346;2023-02-18T14:40:07;21.30;45.80
34776;DHT22;20989;52.566;13.346;2023-02-18T14:43:32;21.40;46.00
34776;DHT22;20989;52.566;13.346;2023-02-18T14:47:00;21.40;45.90
34776;DHT22;20989;52.566;13.346;2023-02-18T14:50:04;21.40;46.00
34776;DHT22;20989;52.566;13.346;2023-02-18T14:53:21;21.40;45.80
34776;DHT22;20989;52.566;13.346;2023-02-18T14:56:22;21.40;46.10
34776;DHT22;20989;52.566;13.346;2023-02-18T14:59:30;21.40;46.00
34776;DHT22;20989;52.566;13.346;2023-02-18T15:02:35;21.30;45.90
34776;DHT22;20989;52.566;13.346;2023-02-18T15:05:38;21.30;46.70
34776;DHT22;20989;52.566;13.346;2023-02-18T15:08:39;21.30;45.90
34776;DHT22;20989;52.566;13.346;2023-02-18T15:15:01;21.30;46.20
34776;DHT22;20989;52.566;13.346;2023-02-18T15:18:03;21.30;46.10
34776;DHT22;20989;52.566;13.346;2023-02-18T15:21:06;21.30;46.00
34776;DHT22;20989;52.566;13.346;2023-02-18T15:27:20;21.30;46.10
34776;DHT22;20989;52.566;13.346;2023-02-18T15:30:27;21.30;45.90
34776;DHT22;20989;52.566;13.346;2023-02-18T15:33:29;21.30;46.00
34776;DHT22;20989;52.566;13.346;2023-02-18T15:36:30;21.30;46.20
34776;DHT22;20989;52.566;13.346;2023-02-18T15:39:31;21.30;46.10
34776;DHT22;20989;52.566;13.346;2023-02-18T15:42:35;21.30;46.10
34776;DHT22;20989;52.566;13.346;2023-02-18T15:45:38;21.30;46.20
34776;DHT22;20989;52.566;13.346;2023-02-18T15:48:46;21.30;46.20
34776;DHT22;20989;52.566;13.346;2023-02-18T15:51:49;21.30;46.00
34776;DHT22;20989;52.566;13.346;2023-02-18T15:54:51;21.30;46.00
34776;DHT22;20989;52.566;13.346;2023-02-18T15:57:52;21.30;46.10
34776;DHT22;20989;52.566;13.346;2023-02-18T16:00:58;21.30;46.00
34776;DHT22;20989;52.566;13.346;2023-02-18T16:03:59;21.30;46.40
34776;DHT22;20989;52.566;13.346;2023-02-18T16:07:03;21.30;45.90
34776;DHT22;20989;52.566;13.346;2023-02-18T16:13:17;21.30;46.10
34776;DHT22;20989;52.566;13.346;2023-02-18T16:16:36;21.30;46.10
34776;DHT22;20989;52.566;13.346;2023-02-18T16:20:14;21.30;46.20
34776;DHT22;20989;52.566;13.346;2023-02-18T16:23:15;21.40;46.20
34776;DHT22;20989;52.566;13.346;2023-02-18T16:26:20;21.30;46.10
34776;DHT22;20989;52.566;13.346;2023-02-18T16:29:35;21.30;46.00
34776;DHT22;20989;52.566;13.346;2023-02-18T16:32:36;21.30;46.40
34776;DHT22;20989;52.566;13.346;2023-02-18T16:35:37;21.30;46.10
34776;DHT22;20989;52.566;13.346;2023-02-18T16:38:38;21.30;46.00
34776;DHT22;20989;52.566;13.346;2023-02-18T16:41:39;21.30;46.30
34776;DHT22;20989;52.566;13.346;2023-02-18T16:44:40;21.30;46.40
34776;DHT22;20989;52.566;13.346;2023-02-18T16:47:41;21.30;46.40
34776;DHT22;20989;52.566;13.346;2023-02-18T16:50:42;21.30;46.20
34776;DHT22;20989;52.566;13.346;2023-02-18T16:53:43;21.30;46.20
34776;DHT22;20989;52.566;13.346;2023-02-18T16:56:44;21.30;46.40
34776;DHT22;20989;52.566;13.346;2023-02-18T16:59:44;21.30;46.50
34776;DHT22;20989;52.566;13.346;2023-02-18T17:02:48;21.30;46.80
34776;DHT22;20989;52.566;13.346;2023-02-18T17:05:49;21.30;46.50
34776;DHT22;20989;52.566;13.346;2023-02-18T17:08:50;21.30;46.50
34776;DHT22;20989;52.566;13.346;2023-02-18T17:11:53;21.30;46.20
34776;DHT22;20989;52.566;13.346;2023-02-18T17:14:54;21.30;46.30
34776;DHT22;20989;52.566;13.346;2023-02-18T17:17:56;21.30;46.00
34776;DHT22;20989;52.566;13.346;2023-02-18T17:20:58;21.30;46.30
34776;DHT22;20989;52.566;13.346;2023-02-18T17:23:59;21.30;46.50
34776;DHT22;20989;52.566;13.346;2023-02-18T17:26:59;21.30;46.50
34776;DHT22;20989;52.566;13.346;2023-02-18T17:30:00;21.30;46.00
34776;DHT22;20989;52.566;13.346;2023-02-18T17:33:01;21.30;46.40
34776;DHT22;20989;52.566;13.346;2023-02-18T17:36:03;21.30;46.40
34776;DHT22;20989;52.566;13.346;2023-02-18T17:39:08;21.40;46.20
34776;DHT22;20989;52.566;13.346;2023-02-18T17:42:11;21.40;46.20
34776;DHT22;20989;52.566;13.346;2023-02-18T17:45:49;21.40;46.40
34776;DHT22;20989;52.566;13.346;2023-02-18T17:48:50;21.40;46.50
34776;DHT22;20989;52.566;13.346;2023-02-18T17:51:51;21.40;46.30
34776;DHT22;20989;52.566;13.346;2023-02-18T17:54:52;21.40;46.20
34776;DHT22;20989;52.566;13.346;2023-02-18T17:57:53;21.40;46.30
34776;DHT22;20989;52.566;13.346;2023-02-18T18:00:55;21.40;46.40
34776;DHT22;20989;52.566;13.346;2023-02-18T18:03:56;21.50;46.20
34776;DHT22;20989;52.566;13.346;2023-02-18T18:06:56;21.40;46.10
34776;DHT22;20989;52.566;13.346;2023-02-18T18:09:57;21.50;46.20
34776;DHT22;20989;52.566;13.346;2023-02-18T18:12:59;21.50;46.20
34776;DHT22;20989;52.566;13.346;2023-02-18T18:16:00;21.50;46.30
34776;DHT22;20989;52.566;13.346;2023-02-18T18:19:01;21.50;46.40
34776;DHT22;20989;52.566;13.346;2023-02-18T18:22:01;21.50;46.30
34776;DHT22;20989;52.566;13.346;2023-02-18T18:25:20;21.50;46.30
34776;DHT22;20989;52.566;13.346;2023-02-18T18:28:21;21.50;46.20
34776;DHT22;20989;52.566;13.346;2023-02-18T18:31:22;21.50;46.10
34776;DHT22;20989;52.566;13.346;2023-02-18T18:34:23;21.50;46.20
34776;DHT22;20989;52.566;13.346;2023-02-18T18:37:24;21.50;46.30
34776;DHT22;20989;52.566;13.346;2023-02-18T18:40:27;21.50;46.50
34776;DHT22;20989;52.566;13.346;2023-02-18T18:43:30;21.50;46.50
34776;DHT22;20989;52.566;13.346;2023-02-18T18:46:30;21.50;46.60
34776;DHT22;20989;52.566;13.346;2023-02-18T18:49:31;21.50;46.50
34776;DHT22;20989;52.566;13.346;2023-02-18T18:52:32;21.50;46.40
34776;DHT22;20989;52.566;13.346;2023-02-18T18:55:37;21.50;46.30
34776;DHT22;20989;52.566;13.346;2023-02-18T18:58:38;21.50;46.30
34776;DHT22;20989;52.566;13.346;2023-02-18T19:01:39;21.50;46.50
34776;DHT22;20989;52.566;13.346;2023-02-18T19:04:40;21.50;46.50
34776;DHT22;20989;52.566;13.346;2023-02-18T19:07:40;21.60;46.40
34776;DHT22;20989;52.566;13.346;2023-02-18T19:10:43;21.50;46.40
34776;DHT22;20989;52.566;13.346;2023-02-18T19:13:44;21.60;46.50
34776;DHT22;20989;52.566;13.346;2023-02-18T19:16:45;21.60;46.70
34776;DHT22;20989;52.566;13.346;2023-02-18T19:19:46;21.60;46.70
34776;DHT22;20989;52.566;13.346;2023-02-18T19:22:47;21.50;47.20
34776;DHT22;20989;52.566;13.346;2023-02-18T19:25:47;21.50;46.70
34776;DHT22;20989;52.566;13.346;2023-02-18T19:28:48;21.50;46.90
34776;DHT22;20989;52.566;13.346;2023-02-18T19:31:49;21.50;46.80
34776;DHT22;20989;52.566;13.346;2023-02-18T19:34:50;21.40;46.80
34776;DHT22;20989;52.566;13.346;2023-02-18T19:37:50;21.40;46.80
34776;DHT22;20989;52.566;13.346;2023-02-18T19:40:51;21.40;46.90
34776;DHT22;20989;52.566;13.346;2023-02-18T19:43:53;21.30;47.10
34776;DHT22;20989;52.566;13.346;2023-02-18T19:46:53;21.30;47.10
34776;DHT22;20989;52.566;13.346;2023-02-18T19:49:56;21.30;47.10
34776;DHT22;20989;52.566;13.346;2023-02-18T19:52:57;21.20;47.00
34776;DHT22;20989;52.566;13.346;2023-02-18T19:56:02;21.20;47.10
34776;DHT22;20989;52.566;13.346;2023-02-18T19:59:06;21.20;47.20
34776;DHT22;20989;52.566;13.346;2023-02-18T20:02:11;21.20;47.20
34776;DHT22;20989;52.566;13.346;2023-02-18T20:05:13;21.10;46.80
34776;DHT22;20989;52.566;13.346;2023-02-18T20:08:14;21.10;46.90
34776;DHT22;20989;52.566;13.346;2023-02-18T20:11:15;21.10;47.00
34776;DHT22;20989;52.566;13.346;2023-02-18T20:14:16;21.10;47.30
34776;DHT22;20989;52.566;13.346;2023-02-18T20:17:18;21.10;47.10
34776;DHT22;20989;52.566;13.346;2023-02-18T20:20:19;21.00;46.80
34776;DHT22;20989;52.566;13.346;2023-02-18T20:23:20;21.00;47.00
34776;DHT22;20989;52.566;13.346;2023-02-18T20:26:20;21.10;47.10
34776;DHT22;20989;52.566;13.346;2023-02-18T20:29:22;21.00;46.90
34776;DHT22;20989;52.566;13.346;2023-02-18T20:32:23;21.00;47.00
34776;DHT22;20989;52.566;13.346;2023-02-18T20:35:24;21.00;47.10
34776;DHT22;20989;52.566;13.346;2023-02-18T20:38:25;21.00;47.10
34776;DHT22;20989;52.566;13.346;2023-02-18T20:41:25;21.00;47.10
34776;DHT22;20989;52.566;13.346;2023-02-18T20:44:26;21.00;47.20
34776;DHT22;20989;52.566;13.346;2023-02-18T20:47:27;21.00;47.00
34776;DHT22;20989;52.566;13.346;2023-02-18T20:50:28;20.90;46.90
34776;DHT22;20989;52.566;13.346;2023-02-18T20:53:30;20.90;47.00
34776;DHT22;20989;52.566;13.346;2023-02-18T20:56:30;20.90;47.00
34776;DHT22;20989;52.566;13.346;2023-02-18T20:59:31;20.90;47.10
34776;DHT22;20989;52.566;13.346;2023-02-18T21:02:35;20.90;47.10
34776;DHT22;20989;52.566;13.346;2023-02-18T21:05:35;20.90;47.00
34776;DHT22;20989;52.566;13.346;2023-02-18T21:08:37;20.90;47.40
34776;DHT22;20989;52.566;13.346;2023-02-18T21:11:37;20.90;47.10
34776;DHT22;20989;52.566;13.346;2023-02-18T21:14:38;20.90;47.00
34776;DHT22;20989;52.566;13.346;2023-02-18T21:17:38;20.80;46.90